Time;durP1;ratioP1;P1;durP2;ratioP2;P2;SDS_P1;SDS_P2;PMS_P1;PMS_P2;Temp;Humidity;BMP_temperature;BMP_pressure;BME280_temperature;BME280_humidity;BME280_pressure;Samples;Min_cycle;Max_cycle;Signal;HPM_P1;HPM_P2
2024/04/04 00:04:25;;;;;;;4.6;2.2;;;;;;;11.02;81.54;98256.666666667;;;;
2024/04/04 00:15:25;;;;;;;4.6;2.2;;;;;;;10.85;80.97;98248.333333333;;;;
2024/04/04 00:26:25;;;;;;;3.6;1.5;;;;;;;10.91;79.69;98243.333333333;;;;
2024/04/04 00:37:25;;;;;;;3.6;1.5;;;;;;;10.84;79.48;98241.666666667;;;;
2024/04/04 00:48:25;;;;;;;3.6;1.5;;;;;;;10.79;79.45;98243.333333333;;;;
2024/04/04 00:58:25;;;;;;;4;1.6;;;;;;;10.87;78.55;98251.666666667;;;;
2024/04/04 01:09:25;;;;;;;4;1.6;;;;;;;10.76;78.47;98245;;;;
2024/04/04 01:19:25;;;;;;;4;1.6;;;;;;;10.6;78.78;98246.666666667;;;;
2024/04/04 01:30:25;;;;;;;2.4;1.1;;;;;;;10.49;79;98248.333333333;;;;
2024/04/04 01:40:25;;;;;;;2.4;1.1;;;;;;;10.55;78.63;98248.333333333;;;;
2024/04/04 01:50:25;;;;;;;2.4;1.1;;;;;;;10.55;78.42;98248.333333333;;;;
2024/04/04 02:01:25;;;;;;;2.9;1.1;;;;;;;10.58;78.49;98246.666666667;;;;
2024/04/04 02:11:25;;;;;;;2.9;1.1;;;;;;;10.62;78.8;98246.666666667;;;;
2024/04/04 02:21:25;;;;;;;2.9;1.1;;;;;;;10.55;78.78;98251.666666667;;;;
2024/04/04 02:31:25;;;;;;;2.5;1.2;;;;;;;10.36;80.04;98246.666666667;;;;
2024/04/04 02:42:25;;;;;;;2.5;1.2;;;;;;;10.18;80.24;98246.666666667;;;;
2024/04/04 02:53:25;;;;;;;2.5;1.2;;;;;;;10.1;80.86;98246.666666667;;;;
2024/04/04 03:04:25;;;;;;;2.5;1.5;;;;;;;9.97;81.94;98241.666666667;;;;
2024/04/04 03:15:25;;;;;;;2.5;1.5;;;;;;;9.86;82.28;98241.666666667;;;;
2024/04/04 03:25:25;;;;;;;2.5;1.5;;;;;;;9.82;82.41;98245;;;;
2024/04/04 03:35:25;;;;;;;5;1.7;;;;;;;9.89;82.15;98250;;;;
2024/04/04 03:45:25;;;;;;;5;1.7;;;;;;;9.94;82.35;98263.333333333;;;;
2024/04/04 03:55:25;;;;;;;5;1.7;;;;;;;9.92;82.72;98263.333333333;;;;
2024/04/04 04:05:25;;;;;;;4.8;1.8;;;;;;;9.99;82.53;98268.333333333;;;;
2024/04/04 04:16:25;;;;;;;4.8;1.8;;;;;;;9.92;82.58;98261.666666667;;;;
2024/04/04 04:26:25;;;;;;;5;2.2;;;;;;;10.07;82.41;98273.333333333;;;;
2024/04/04 04:37:25;;;;;;;5;2.2;;;;;;;10.29;81.96;98275;;;;
2024/04/04 04:47:25;;;;;;;5;2.2;;;;;;;10.45;81.17;98285;;;;
2024/04/04 04:58:25;;;;;;;3.9;1.8;;;;;;;10.65;80.39;98291.666666667;;;;
2024/04/04 05:08:25;;;;;;;3.9;1.8;;;;;;;10.65;79.9;98293.333333333;;;;
2024/04/04 05:19:25;;;;;;;3.9;1.8;;;;;;;10.55;79.76;98295;;;;
2024/04/04 05:30:26;;;;;;;4.2;1.7;;;;;;;10.41;79.85;98310;;;;
2024/04/04 05:40:25;;;;;;;4.2;1.7;;;;;;;10.3;80.01;98301.666666667;;;;
2024/04/04 05:50:25;;;;;;;4.2;1.7;;;;;;;10.26;80.58;98310;;;;
2024/04/04 06:00:25;;;;;;;3.9;2.1;;;;;;;10.39;80.32;98313.333333333;;;;
2024/04/04 06:10:25;;;;;;;3.9;2.1;;;;;;;10.58;81.39;98320;;;;
2024/04/04 06:20:25;;;;;;;3.9;2.1;;;;;;;10.93;80.74;98323.333333333;;;;
2024/04/04 06:30:25;;;;;;;17.8;6.2;;;;;;;11.59;78.99;98335;;;;
2024/04/04 06:41:25;;;;;;;17.8;6.2;;;;;;;12.23;76.64;98333.333333333;;;;
2024/04/04 06:51:25;;;;;;;17.8;6.2;;;;;;;12.53;73.64;98328.333333333;;;;
2024/04/04 07:02:25;;;;;;;7.3;2.8;;;;;;;12.93;71.38;98333.333333333;;;;
2024/04/04 07:13:25;;;;;;;7.3;2.8;;;;;;;13.36;70.19;98350;;;;
2024/04/04 07:23:25;;;;;;;7.3;2.8;;;;;;;13.6;66.83;98348.333333333;;;;
2024/04/04 07:33:25;;;;;;;3.6;1.3;;;;;;;14.05;64.89;98350;;;;
2024/04/04 07:43:25;;;;;;;3.6;1.3;;;;;;;14.44;64.04;98355;;;;
2024/04/04 07:53:26;;;;;;;3.6;1.3;;;;;;;15.17;63.47;98351.666666667;;;;
2024/04/04 08:04:25;;;;;;;4.4;2.1;;;;;;;15.13;61.17;98350;;;;
2024/04/04 08:15:26;;;;;;;4.4;2.1;;;;;;;15.39;59.64;98358.333333333;;;;
2024/04/04 08:25:26;;;;;;;3.4;1.3;;;;;;;15.71;57.8;98353.333333333;;;;
2024/04/04 08:35:25;;;;;;;3.4;1.3;;;;;;;16.06;58.48;98345;;;;
2024/04/04 08:46:25;;;;;;;3.4;1.3;;;;;;;16.15;55.76;98348.333333333;;;;
2024/04/04 08:56:25;;;;;;;2.3;1.1;;;;;;;16.24;54.84;98340;;;;
2024/04/04 09:06:25;;;;;;;2.3;1.1;;;;;;;16.46;57.15;98340;;;;
2024/04/04 09:17:26;;;;;;;2.3;1.1;;;;;;;16.48;55.46;98350;;;;
2024/04/04 09:28:25;;;;;;;3.4;1.3;;;;;;;16.06;56.28;98358.333333333;;;;
2024/04/04 09:38:25;;;;;;;3.4;1.3;;;;;;;16.48;56.09;98366.666666667;;;;
2024/04/04 09:49:25;;;;;;;3.4;1.3;;;;;;;16.6;55.73;98366.666666667;;;;
2024/04/04 09:59:25;;;;;;;5.3;2.6;;;;;;;16.96;54.68;98370;;;;
2024/04/04 10:10:25;;;;;;;5.3;2.6;;;;;;;16.99;53.75;98373.333333333;;;;
2024/04/04 10:20:25;;;;;;;5.3;2.6;;;;;;;17.01;53.71;98378.333333333;;;;
2024/04/04 10:30:25;;;;;;;3.8;1.7;;;;;;;17.13;52.38;98383.333333333;;;;
2024/04/04 10:40:25;;;;;;;3.8;1.7;;;;;;;17.43;52.95;98383.333333333;;;;
2024/04/04 10:50:25;;;;;;;3.8;1.7;;;;;;;16.92;53.08;98388.333333333;;;;
2024/04/04 11:01:25;;;;;;;3;1.3;;;;;;;17.23;55;98386.666666667;;;;
2024/04/04 11:12:25;;;;;;;3;1.3;;;;;;;17.05;52.39;98393.333333333;;;;
2024/04/04 11:23:26;;;;;;;3;1.3;;;;;;;17.06;52.05;98391.666666667;;;;
2024/04/04 11:33:25;;;;;;;3.1;1.1;;;;;;;17.58;53.51;98390;;;;
2024/04/04 11:44:25;;;;;;;3.1;1.1;;;;;;;17.44;51.62;98395;;;;
2024/04/04 11:55:25;;;;;;;5;2.2;;;;;;;17.48;53.35;98391.666666667;;;;
2024/04/04 12:06:25;;;;;;;5;2.2;;;;;;;16.57;54.21;98401.666666667;;;;
2024/04/04 12:16:26;;;;;;;5;2.2;;;;;;;16.95;55.47;98401.666666667;;;;
2024/04/04 12:26:25;;;;;;;4.3;1.7;;;;;;;17.23;54.21;98406.666666667;;;;
2024/04/04 12:37:26;;;;;;;4.3;1.7;;;;;;;17.18;53.67;98406.666666667;;;;
2024/04/04 12:48:25;;;;;;;4.3;1.7;;;;;;;17.3;54.3;98401.666666667;;;;
2024/04/04 12:59:25;;;;;;;3.7;2.1;;;;;;;17.66;54.23;98398.333333333;;;;
2024/04/04 13:09:25;;;;;;;3.7;2.1;;;;;;;17.61;55;98395;;;;
2024/04/04 13:20:25;;;;;;;3.7;2.1;;;;;;;17.58;53.92;98396;;;;
2024/04/04 13:30:25;;;;;;;4.9;2.7;;;;;;;17.65;54.46;98388.333333333;;;;
2024/04/04 13:40:25;;;;;;;4.9;2.7;;;;;;;17.39;54.84;98383.333333333;;;;
2024/04/04 13:51:25;;;;;;;4.9;2.7;;;;;;;16.97;56.77;98388.333333333;;;;
2024/04/04 14:02:25;;;;;;;3.3;1.3;;;;;;;16.75;57.22;98390;;;;
2024/04/04 14:12:25;;;;;;;3.3;1.3;;;;;;;16.75;59.02;98390;;;;
2024/04/04 14:23:25;;;;;;;3.3;1.3;;;;;;;17.12;59.72;98385;;;;
2024/04/04 14:34:26;;;;;;;2.7;1.3;;;;;;;17.77;57.38;98380;;;;
2024/04/04 14:44:26;;;;;;;2.7;1.3;;;;;;;17.24;57.73;98371.666666667;;;;
2024/04/04 14:55:25;;;;;;;2.6;1.3;;;;;;;17.59;55.58;98370;;;;
2024/04/04 15:06:25;;;;;;;2.6;1.3;;;;;;;18.14;57.71;98358.333333333;;;;
2024/04/04 15:16:25;;;;;;;2.6;1.3;;;;;;;19.98;51.61;98353.333333333;;;;
2024/04/04 15:27:25;;;;;;;2.5;1.1;;;;;;;21.19;46.02;98358.333333333;;;;
2024/04/04 15:38:25;;;;;;;2.5;1.1;;;;;;;19.82;49.43;98361.666666667;;;;
2024/04/04 15:48:26;;;;;;;2.5;1.1;;;;;;;19.7;50.85;98361.666666667;;;;
2024/04/04 15:59:26;;;;;;;3.4;1.1;;;;;;;20.9;47.26;98351.666666667;;;;
2024/04/04 16:09:25;;;;;;;3.4;1.1;;;;;;;19.52;48.68;98351.666666667;;;;
2024/04/04 16:20:25;;;;;;;3.4;1.1;;;;;;;18.26;51.22;98360;;;;
2024/04/04 16:31:25;;;;;;;2.9;1.3;;;;;;;17.21;53.63;98360;;;;
2024/04/04 16:41:25;;;;;;;2.9;1.3;;;;;;;16.27;56.53;98361.666666667;;;;
2024/04/04 16:51:25;;;;;;;2.9;1.3;;;;;;;15.56;58.79;98350;;;;
2024/04/04 17:01:25;;;;;;;5.4;2.7;;;;;;;14.85;60.33;98348.333333333;;;;
2024/04/04 17:11:25;;;;;;;5.4;2.7;;;;;;;14.29;61.28;98346.666666667;;;;
2024/04/04 17:21:25;;;;;;;5.4;2.7;;;;;;;13.63;63.36;98345;;;;
2024/04/04 17:32:25;;;;;;;7.2;4.3;;;;;;;13.08;66.59;98353.333333333;;;;
2024/04/04 17:42:25;;;;;;;7.2;4.3;;;;;;;12.85;67.27;98355;;;;
2024/04/04 17:52:26;;;;;;;7.2;4.3;;;;;;;12.74;67.31;98356.666666667;;;;
2024/04/04 18:02:26;;;;;;;7.1;4.6;;;;;;;12.62;68.65;98366.666666667;;;;
2024/04/04 18:13:25;;;;;;;7.1;4.6;;;;;;;12.51;68.08;98361.666666667;;;;
2024/04/04 18:23:25;;;;;;;7.1;4.6;;;;;;;12.29;69.44;98371.666666667;;;;
2024/04/04 18:34:27;;;;;;;10.4;5.9;;;;;;;12.25;68.94;98366.666666667;;;;
2024/04/04 18:45:26;;;;;;;10.4;5.9;;;;;;;12.23;69.16;98375;;;;
2024/04/04 18:56:25;;;;;;;8.2;5;;;;;;;12.41;68.62;98376.666666667;;;;
2024/04/04 19:06:25;;;;;;;8.2;5;;;;;;;12.51;67.85;98373.333333333;;;;
2024/04/04 19:17:25;;;;;;;8.2;5;;;;;;;12.9;66.55;98366.666666667;;;;
2024/04/04 19:28:25;;;;;;;6.3;4.5;;;;;;;13.18;65.57;98368.333333333;;;;
2024/04/04 19:38:26;;;;;;;6.3;4.5;;;;;;;13.37;63.87;98366.666666667;;;;
2024/04/04 19:48:26;;;;;;;6.3;4.5;;;;;;;13.44;64.16;98375;;;;
2024/04/04 19:58:26;;;;;;;7.5;5;;;;;;;13.45;63.93;98411.666666667;;;;
2024/04/04 20:09:26;;;;;;;7.5;5;;;;;;;13.17;69.17;98468.333333333;;;;
2024/04/04 20:20:26;;;;;;;7.5;5;;;;;;;12.73;75.8;98473.333333333;;;;
2024/04/04 20:31:25;;;;;;;14.2;10.3;;;;;;;12.45;79.44;98490;;;;
2024/04/04 20:41:26;;;;;;;14.2;10.3;;;;;;;12.2;81.45;98446.666666667;;;;
2024/04/04 20:51:26;;;;;;;14.2;10.3;;;;;;;11.97;83.4;98450;;;;
2024/04/04 21:01:26;;;;;;;9.3;6.9;;;;;;;12.05;83.07;98450;;;;
2024/04/04 21:12:26;;;;;;;9.3;6.9;;;;;;;11.87;84.85;98430;;;;
2024/04/04 21:22:28;;;;;;;9.3;6.9;;;;;;;11.8;85.71;98423.333333333;;;;
2024/04/04 21:32:26;;;;;;;5.8;3.3;;;;;;;11.82;85.32;98421.666666667;;;;
2024/04/04 21:42:27;;;;;;;5.8;3.3;;;;;;;11.81;85.11;98421.666666667;;;;
2024/04/04 21:52:26;;;;;;;5.8;3.3;;;;;;;11.89;84.3;98418.333333333;;;;
2024/04/04 22:03:26;;;;;;;3.8;1.6;;;;;;;11.93;84.14;98415;;;;
2024/04/04 22:14:26;;;;;;;3.8;1.6;;;;;;;12.01;84.05;98421.666666667;;;;
2024/04/04 22:25:26;;;;;;;2.8;1.7;;;;;;;12.02;84.59;98458.333333333;;;;
2024/04/04 22:35:26;;;;;;;2.8;1.7;;;;;;;12.04;85.11;98451.666666667;;;;
2024/04/04 22:46:26;;;;;;;2.8;1.7;;;;;;;11.98;85.4;98453.333333333;;;;
2024/04/04 22:57:26;;;;;;;3.1;1.4;;;;;;;12.21;84.29;98483.333333333;;;;
2024/04/04 23:07:26;;;;;;;3.1;1.4;;;;;;;12.11;85.5;98476.666666667;;;;
2024/04/04 23:17:26;;;;;;;3.1;1.4;;;;;;;11.97;86.35;98455;;;;
2024/04/04 23:28:26;;;;;;;3.1;1.4;;;;;;;11.9;86.1;98423.333333333;;;;
2024/04/04 23:38:26;;;;;;;3.1;1.4;;;;;;;11.8;86.75;98420;;;;
2024/04/04 23:49:26;;;;;;;3.1;1.4;;;;;;;11.84;86.32;98418.333333333;;;;
